createdAt,value
2017-02-05T00:00:12.972Z,9.35
2017-02-05T00:00:53.431Z,9.15
2017-02-05T00:01:34.188Z,9.15
2017-02-05T00:02:14.751Z,9.02
2017-02-05T00:02:55.191Z,9.01
2017-02-05T00:03:35.713Z,9.1
2017-02-05T00:04:16.182Z,9.14
2017-02-05T00:04:56.697Z,9.13
2017-02-05T00:05:37.228Z,9.24
2017-02-05T00:06:17.754Z,9.32
2017-02-05T00:06:58.257Z,9.39
2017-02-05T00:07:38.854Z,9.39
2017-02-05T00:08:19.549Z,9.32
2017-02-05T00:08:59.899Z,9.5
2017-02-05T00:09:40.342Z,9.53
2017-02-05T00:10:20.841Z,9.5
2017-02-05T00:11:01.305Z,9.56
2017-02-05T00:11:41.860Z,9.61
2017-02-05T00:12:22.272Z,9.57
2017-02-05T00:13:02.878Z,9.57
2017-02-05T00:13:43.563Z,9.53
2017-02-05T00:14:24.402Z,9.47
2017-02-05T00:15:04.818Z,9.53
2017-02-05T00:15:45.412Z,9.5
2017-02-05T00:16:26.063Z,9.54
2017-02-05T00:17:06.558Z,9.54
2017-02-05T00:17:47.046Z,9.36
2017-02-05T00:18:27.550Z,9.39
2017-02-05T00:19:08.127Z,9.5
2017-02-05T00:19:48.762Z,9.38
2017-02-05T00:20:29.432Z,9.38
2017-02-05T00:21:09.790Z,9.35
2017-02-05T00:21:50.590Z,9.43
2017-02-05T00:22:31.204Z,9.48
2017-02-05T00:23:11.942Z,9.5
2017-02-05T00:23:52.364Z,9.64
2017-02-05T00:24:34.893Z,9.58
2017-02-05T00:25:15.916Z,9.57
2017-02-05T00:25:58.417Z,9.6
2017-02-05T00:26:42.832Z,9.6
2017-02-05T00:27:24.722Z,9.56
2017-02-05T00:29:18.971Z,9.53
2017-02-05T00:30:01.712Z,9.5
2017-02-05T00:30:42.688Z,9.47
2017-02-05T00:31:24.312Z,9.47
2017-02-05T00:32:05.156Z,9.53
2017-02-05T00:32:47.440Z,9.42
2017-02-05T00:33:28.636Z,9.5
2017-02-05T00:34:10.357Z,9.43
2017-02-05T00:34:51.036Z,9.58
2017-02-05T00:35:33.008Z,9.66
2017-02-05T00:36:13.846Z,9.74
2017-02-05T00:36:56.288Z,9.71
2017-02-05T00:37:37.956Z,9.58
2017-02-05T00:38:20.064Z,9.6
2017-02-05T00:39:01.567Z,9.6
2017-02-05T00:39:43.043Z,9.64
2017-02-05T00:40:23.948Z,9.6
2017-02-05T00:41:06.061Z,9.65
2017-02-05T00:41:46.668Z,9.76
2017-02-05T00:43:47.839Z,9.71
2017-02-05T00:45:47.251Z,9.81
2017-02-05T00:46:32.296Z,9.72
2017-02-05T00:47:12.646Z,9.87
2017-02-05T00:47:53.138Z,9.71
2017-02-05T00:48:33.823Z,9.76
2017-02-05T00:49:14.238Z,9.79
2017-02-05T00:49:54.784Z,9.78
2017-02-05T00:50:35.246Z,9.74
2017-02-05T00:51:15.744Z,9.79
2017-02-05T00:51:56.240Z,9.84
2017-02-05T00:52:36.715Z,9.9
2017-02-05T00:53:17.407Z,9.75
2017-02-05T00:53:58.103Z,9.86
2017-02-05T00:54:38.709Z,9.81
2017-02-05T00:55:19.303Z,9.84
2017-02-05T00:55:59.747Z,9.83
2017-02-05T00:56:40.219Z,9.96
2017-02-05T00:57:20.853Z,9.94
2017-02-05T00:58:01.357Z,9.91
2017-02-05T00:58:41.854Z,9.89
2017-02-05T00:59:22.338Z,9.91
2017-02-05T01:00:02.793Z,9.94
2017-02-05T01:00:43.261Z,9.97
2017-02-05T01:01:24.031Z,9.89
2017-02-05T01:02:04.502Z,9.81
2017-02-05T01:02:44.957Z,9.91
2017-02-05T01:03:25.457Z,9.84
2017-02-05T01:04:05.965Z,9.78
2017-02-05T01:04:46.411Z,9.87
2017-02-05T01:05:26.936Z,9.86
2017-02-05T01:06:07.420Z,9.81
2017-02-05T01:06:47.936Z,9.81
2017-02-05T01:07:28.365Z,9.86
2017-02-05T01:08:09.078Z,9.76
2017-02-05T01:08:49.509Z,9.83
2017-02-05T01:09:29.978Z,9.86
2017-02-05T01:10:10.512Z,9.89
2017-02-05T01:10:50.922Z,9.96
2017-02-05T01:11:31.432Z,9.99
2017-02-05T01:12:11.968Z,10.01
2017-02-05T01:12:52.453Z,10.01
2017-02-05T01:13:32.910Z,9.93
2017-02-05T01:14:13.476Z,9.93
2017-02-05T01:14:53.890Z,9.89
2017-02-05T01:15:34.444Z,9.84
2017-02-05T01:16:14.947Z,9.84
2017-02-05T01:16:55.428Z,9.86
2017-02-05T01:17:35.881Z,9.94
2017-02-05T01:18:16.418Z,9.96
2017-02-05T01:18:56.911Z,10.01
2017-02-05T01:19:37.393Z,9.96
2017-02-05T01:20:17.855Z,9.97
2017-02-05T01:20:58.372Z,10.07
2017-02-05T01:21:38.932Z,10.02
2017-02-05T01:22:19.389Z,10.02
2017-02-05T01:22:59.846Z,10.08
2017-02-05T01:23:40.331Z,10.05
2017-02-05T01:24:20.877Z,10.22
2017-02-05T01:25:01.474Z,10.18
2017-02-05T01:25:41.986Z,10.3
2017-02-05T01:26:22.412Z,10.17
2017-02-05T01:27:02.924Z,10.2
2017-02-05T01:27:43.588Z,10.18
2017-02-05T01:28:24.056Z,10.07
2017-02-05T01:29:04.491Z,10.05
2017-02-05T01:29:44.987Z,10.05
2017-02-05T01:30:25.491Z,10.07
2017-02-05T01:31:05.945Z,10.09
2017-02-05T01:31:46.450Z,10.09
2017-02-05T01:32:27.009Z,10.14
2017-02-05T01:33:07.396Z,10.15
2017-02-05T01:33:47.922Z,10.14
2017-02-05T01:34:28.418Z,10.23
2017-02-05T01:35:08.928Z,10.07
2017-02-05T01:35:49.389Z,10.05
2017-02-05T01:36:29.868Z,9.99
2017-02-05T01:37:10.330Z,9.96
2017-02-05T01:37:50.848Z,9.91
2017-02-05T01:38:31.406Z,10.02
2017-02-05T01:39:11.951Z,9.93
2017-02-05T01:39:52.443Z,9.9
2017-02-05T01:40:32.917Z,9.83
2017-02-05T01:41:13.356Z,9.79
2017-02-05T01:41:53.903Z,9.86
2017-02-05T01:42:34.418Z,9.76
2017-02-05T01:43:14.849Z,9.81
2017-02-05T01:43:55.366Z,9.86
2017-02-05T01:44:35.837Z,9.74
2017-02-05T01:45:16.352Z,9.74
2017-02-05T01:45:56.849Z,9.66
2017-02-05T01:46:37.337Z,9.65
2017-02-05T01:47:17.788Z,9.65
2017-02-05T01:47:58.265Z,9.66
2017-02-05T01:48:38.843Z,9.69
2017-02-05T01:49:19.417Z,9.64
2017-02-05T01:50:00.048Z,9.58
2017-02-05T01:50:40.532Z,9.43
2017-02-05T01:51:21.019Z,9.42
2017-02-05T01:52:01.455Z,9.4
2017-02-05T01:52:41.990Z,9.42
2017-02-05T01:53:22.539Z,9.26
2017-02-05T01:54:03.060Z,9.39
2017-02-05T01:54:43.551Z,9.43
2017-02-05T01:55:24.020Z,9.4
2017-02-05T01:56:04.535Z,9.38
2017-02-05T01:56:45.215Z,9.33
2017-02-05T01:57:25.704Z,9.39
2017-02-05T01:58:06.249Z,9.43
2017-02-05T01:58:46.669Z,9.39
2017-02-05T01:59:27.161Z,9.46
2017-02-05T02:00:07.637Z,9.36
2017-02-05T02:00:48.152Z,9.38
2017-02-05T02:01:28.653Z,9.36
2017-02-05T02:02:09.173Z,9.43
2017-02-05T02:02:49.596Z,9.35
2017-02-05T02:03:30.141Z,9.28
2017-02-05T02:04:10.629Z,9.36
2017-02-05T02:04:51.119Z,9.26
2017-02-05T02:05:31.644Z,9.23
2017-02-05T02:06:12.094Z,9.24
2017-02-05T02:06:52.730Z,9.08
2017-02-05T02:07:33.178Z,9.17
2017-02-05T02:08:13.693Z,9.1
2017-02-05T02:08:54.205Z,9.04
2017-02-05T02:09:34.728Z,9.14
2017-02-05T02:10:15.408Z,9.04
2017-02-05T02:10:55.866Z,8.98
2017-02-05T02:11:36.309Z,9.02
2017-02-05T02:12:16.845Z,9.05
2017-02-05T02:12:57.316Z,9.02
2017-02-05T02:13:37.808Z,8.96
2017-02-05T02:14:18.317Z,8.94
2017-02-05T02:14:58.817Z,9.04
2017-02-05T02:15:39.315Z,8.99
2017-02-05T02:16:19.819Z,8.92
2017-02-05T02:17:00.344Z,8.95
2017-02-05T02:17:40.777Z,8.92
2017-02-05T02:18:21.270Z,8.92
2017-02-05T02:19:01.759Z,8.95
2017-02-05T02:19:42.248Z,8.95
2017-02-05T02:20:22.704Z,8.94
2017-02-05T02:21:03.239Z,8.94
2017-02-05T02:21:43.724Z,8.96
2017-02-05T02:22:24.189Z,8.95
2017-02-05T02:23:04.676Z,8.91
2017-02-05T02:23:45.187Z,8.84
2017-02-05T02:24:25.691Z,8.87
2017-02-05T02:25:06.195Z,8.92
2017-02-05T02:25:46.661Z,8.98
2017-02-05T02:26:27.215Z,8.92
2017-02-05T02:27:07.639Z,8.79
2017-02-05T02:27:48.175Z,8.83
2017-02-05T02:28:28.638Z,8.86
2017-02-05T02:29:09.205Z,8.87
2017-02-05T02:29:49.634Z,8.87
2017-02-05T02:30:30.182Z,8.86
2017-02-05T02:31:10.629Z,8.76
2017-02-05T02:31:51.076Z,8.77
2017-02-05T02:32:31.617Z,8.77
2017-02-05T02:33:12.104Z,8.81
2017-02-05T02:33:52.552Z,8.84
2017-02-05T02:34:33.061Z,8.86
2017-02-05T02:35:13.542Z,8.77
2017-02-05T02:35:54.040Z,8.81
2017-02-05T02:36:34.562Z,8.79
2017-02-05T02:37:15.070Z,8.84
2017-02-05T02:37:55.499Z,8.79
2017-02-05T02:38:36.047Z,8.71
2017-02-05T02:39:16.509Z,8.74
2017-02-05T02:39:57.019Z,8.86
2017-02-05T02:40:37.637Z,8.65
2017-02-05T02:41:18.129Z,8.65
2017-02-05T02:41:58.609Z,8.74
2017-02-05T02:42:39.072Z,8.77
2017-02-05T02:43:19.608Z,8.66
2017-02-05T02:44:00.100Z,8.66
2017-02-05T02:44:40.667Z,8.65
2017-02-05T02:45:21.150Z,8.74
2017-02-05T02:46:01.668Z,8.66
2017-02-05T02:46:42.157Z,8.7
2017-02-05T02:47:22.619Z,8.58
2017-02-05T02:48:03.077Z,8.43
2017-02-05T02:48:43.618Z,8.48
2017-02-05T02:49:24.120Z,8.5
2017-02-05T02:50:04.596Z,8.47
2017-02-05T02:50:45.213Z,8.5
2017-02-05T02:51:25.658Z,8.41
2017-02-05T02:52:06.194Z,8.4
2017-02-05T02:52:46.660Z,8.38
2017-02-05T02:53:27.228Z,8.37
2017-02-05T02:54:07.679Z,8.4
2017-02-05T02:54:48.162Z,8.52
2017-02-05T02:55:28.690Z,8.56
2017-02-05T02:56:09.143Z,8.59
2017-02-05T02:56:49.624Z,8.43
2017-02-05T02:57:30.138Z,8.41
2017-02-05T02:58:10.626Z,8.48
2017-02-05T02:58:51.083Z,8.52
2017-02-05T02:59:31.609Z,8.55
2017-02-05T03:00:12.146Z,8.61
2017-02-05T03:00:52.591Z,8.5
2017-02-05T03:01:33.123Z,8.38
2017-02-05T03:02:13.659Z,8.48
2017-02-05T03:02:54.035Z,8.5
2017-02-05T03:03:34.577Z,8.53
2017-02-05T03:04:15.186Z,8.44
2017-02-05T03:04:55.687Z,8.29
2017-02-05T03:05:36.233Z,8.3
2017-02-05T03:06:16.869Z,8.4
2017-02-05T03:06:57.439Z,8.41
2017-02-05T03:07:37.995Z,8.37
2017-02-05T03:08:18.462Z,8.4
2017-02-05T03:08:58.920Z,8.28
2017-02-05T03:09:39.431Z,8.38
2017-02-05T03:10:20.000Z,8.4
2017-02-05T03:11:00.491Z,8.34
2017-02-05T03:11:41.196Z,8.29
2017-02-05T03:12:21.627Z,8.34
2017-02-05T03:13:02.174Z,8.3
2017-02-05T03:13:42.721Z,8.29
2017-02-05T03:14:23.136Z,8.28
2017-02-05T03:15:03.662Z,8.3
2017-02-05T03:15:44.128Z,8.33
2017-02-05T03:16:24.597Z,8.3
2017-02-05T03:17:05.027Z,8.3
2017-02-05T03:17:45.546Z,8.15
2017-02-05T03:18:26.099Z,8.28
2017-02-05T03:19:06.559Z,8.26
2017-02-05T03:19:47.125Z,8.15
2017-02-05T03:20:27.738Z,8.16
2017-02-05T03:21:08.281Z,8
2017-02-05T03:21:48.867Z,8.08
2017-02-05T03:22:29.346Z,8.11
2017-02-05T03:23:09.843Z,8.1
2017-02-05T03:23:50.363Z,8.18
2017-02-05T03:24:30.848Z,8.18
2017-02-05T03:25:11.393Z,8.11
2017-02-05T03:25:52.024Z,8.12
2017-02-05T03:26:32.585Z,8.1
2017-02-05T03:27:12.979Z,8.07
2017-02-05T03:27:53.603Z,7.92
2017-02-05T03:28:34.173Z,7.95
2017-02-05T03:29:14.711Z,8.02
2017-02-05T03:29:55.256Z,7.97
2017-02-05T03:30:36.039Z,8
2017-02-05T03:31:16.497Z,7.92
2017-02-05T03:31:57.032Z,7.83
2017-02-05T03:32:37.570Z,7.87
2017-02-05T03:33:18.074Z,8.02
2017-02-05T03:33:58.535Z,7.89
2017-02-05T03:34:39.113Z,7.92
2017-02-05T03:35:19.573Z,7.98
2017-02-05T03:36:00.146Z,7.98
2017-02-05T03:36:40.556Z,8.01
2017-02-05T03:37:21.087Z,7.97
2017-02-05T03:38:01.725Z,7.9
2017-02-05T03:38:42.400Z,8.02
2017-02-05T03:39:22.954Z,7.95
2017-02-05T03:40:03.436Z,8
2017-02-05T03:40:44.047Z,8.02
2017-02-05T03:41:24.495Z,7.93
2017-02-05T03:42:05.037Z,8.05
2017-02-05T03:42:45.498Z,7.92
2017-02-05T03:43:25.951Z,7.87
2017-02-05T03:44:06.455Z,7.89
2017-02-05T03:44:46.979Z,8.02
2017-02-05T03:45:28.262Z,8.05
2017-02-05T03:46:08.778Z,8.07
2017-02-05T03:46:49.322Z,8.1
2017-02-05T03:47:29.867Z,8.05
2017-02-05T03:48:10.318Z,8
2017-02-05T03:48:50.819Z,7.87
2017-02-05T03:49:31.423Z,7.69
2017-02-05T03:50:12.003Z,7.74
2017-02-05T03:50:52.511Z,7.82
2017-02-05T03:51:32.955Z,7.83
2017-02-05T03:52:13.466Z,7.75
2017-02-05T03:52:53.966Z,7.77
2017-02-05T03:53:34.476Z,7.69
2017-02-05T03:54:14.972Z,7.74
2017-02-05T03:54:55.472Z,7.64
2017-02-05T03:55:35.968Z,7.61
2017-02-05T03:56:17.474Z,7.69
2017-02-05T03:56:57.293Z,7.63
2017-02-05T03:57:37.879Z,7.74
2017-02-05T03:58:18.312Z,7.71
2017-02-05T03:58:58.855Z,7.55
2017-02-05T03:59:39.465Z,7.57
2017-02-05T04:00:19.874Z,7.5
2017-02-05T04:01:00.339Z,7.63
2017-02-05T04:01:40.839Z,7.61
2017-02-05T04:02:21.316Z,7.6
2017-02-05T04:03:01.811Z,7.82
2017-02-05T04:03:42.389Z,7.72
2017-02-05T04:04:22.855Z,7.79
2017-02-05T04:05:03.297Z,7.79
2017-02-05T04:05:43.756Z,7.69
2017-02-05T04:06:24.257Z,7.72
2017-02-05T04:07:04.763Z,7.79
2017-02-05T04:07:45.318Z,7.68
2017-02-05T04:08:25.886Z,7.74
2017-02-05T04:09:06.339Z,7.79
2017-02-05T04:09:46.811Z,7.77
2017-02-05T04:10:27.304Z,7.86
2017-02-05T04:11:07.833Z,7.79
2017-02-05T04:11:48.310Z,7.82
2017-02-05T04:12:28.829Z,7.82
2017-02-05T04:13:09.894Z,7.9
2017-02-05T04:14:58.346Z,7.97
2017-02-05T04:15:38.901Z,7.89
2017-02-05T04:16:19.438Z,7.92
2017-02-05T04:16:59.891Z,8.07
2017-02-05T04:17:40.430Z,7.93
2017-02-05T04:18:20.867Z,7.87
2017-02-05T04:19:01.425Z,7.95
2017-02-05T04:19:41.905Z,7.97
2017-02-05T04:20:22.424Z,7.98
2017-02-05T04:21:02.898Z,8.05
2017-02-05T04:21:43.346Z,8.04
2017-02-05T04:22:23.907Z,7.97
2017-02-05T04:23:04.395Z,7.92
2017-02-05T04:23:44.856Z,7.97
2017-02-05T04:24:25.390Z,8.05
2017-02-05T04:25:05.899Z,7.97
2017-02-05T04:25:46.370Z,8.01
2017-02-05T04:26:26.895Z,8.04
2017-02-05T04:27:07.441Z,8.07
2017-02-05T04:27:47.911Z,8.1
2017-02-05T04:28:28.397Z,8.07
2017-02-05T04:29:08.877Z,8.07
2017-02-05T04:29:49.408Z,7.93
2017-02-05T04:30:29.890Z,7.98
2017-02-05T04:31:10.443Z,7.92
2017-02-05T04:31:50.891Z,7.95
2017-02-05T04:32:31.442Z,8.01
2017-02-05T04:33:11.907Z,8.07
2017-02-05T04:33:52.383Z,8.08
2017-02-05T04:34:32.893Z,8.08
2017-02-05T04:35:13.373Z,8.12
2017-02-05T04:35:53.866Z,8.11
2017-02-05T04:36:34.474Z,8.16
2017-02-05T04:37:14.984Z,8.19
2017-02-05T04:37:55.428Z,8.12
2017-02-05T04:38:35.949Z,7.95
2017-02-05T04:39:16.397Z,8.04
2017-02-05T04:39:56.891Z,8.07
2017-02-05T04:40:37.394Z,8.16
2017-02-05T04:41:17.906Z,8.1
2017-02-05T04:41:58.385Z,8.12
2017-02-05T04:42:38.868Z,8.18
2017-02-05T04:43:19.354Z,8.28
2017-02-05T04:43:59.893Z,8.23
2017-02-05T04:44:40.431Z,8.12
2017-02-05T04:45:20.914Z,8.25
2017-02-05T04:46:01.407Z,8.25
2017-02-05T04:46:41.883Z,8.22
2017-02-05T04:47:22.340Z,8.26
2017-02-05T04:48:02.840Z,8.26
2017-02-05T04:48:43.359Z,8.29
2017-02-05T04:49:23.824Z,8.28
2017-02-05T04:50:04.329Z,8.28
2017-02-05T04:50:44.822Z,8.29
2017-02-05T04:51:25.303Z,8.37
2017-02-05T04:52:05.759Z,8.3
2017-02-05T04:52:46.262Z,8.3
2017-02-05T04:53:26.768Z,8.26
2017-02-05T04:54:07.307Z,8.26
2017-02-05T04:54:47.744Z,8.26
2017-02-05T04:55:28.278Z,8.25
2017-02-05T04:56:08.795Z,8.36
2017-02-05T04:56:49.281Z,8.36
2017-02-05T04:57:29.729Z,8.36
2017-02-05T04:58:10.400Z,8.37
2017-02-05T04:58:50.899Z,8.26
2017-02-05T04:59:31.454Z,8.36
2017-02-05T05:00:11.940Z,8.38
2017-02-05T05:00:52.471Z,8.26
2017-02-05T05:01:32.917Z,8.25
2017-02-05T05:02:13.419Z,8.22
2017-02-05T05:02:53.912Z,8.3
2017-02-05T05:03:34.552Z,8.2
2017-02-05T05:04:15.030Z,8.18
2017-02-05T05:04:55.587Z,8.25
2017-02-05T05:05:36.043Z,8.22
2017-02-05T05:06:16.518Z,8.23
2017-02-05T05:06:57.012Z,8.29
2017-02-05T05:07:37.508Z,8.29
2017-02-05T05:08:18.036Z,8.28
2017-02-05T05:08:58.648Z,8.3
2017-02-05T05:09:39.168Z,8.33
2017-02-05T05:10:19.688Z,8.23
2017-02-05T05:11:00.132Z,8.29
2017-02-05T05:11:40.603Z,8.19
2017-02-05T05:12:21.104Z,8.16
2017-02-05T05:13:01.581Z,8.19
2017-02-05T05:13:42.051Z,8.2
2017-02-05T05:14:22.563Z,8.28
2017-02-05T05:15:03.061Z,8.22
2017-02-05T05:15:43.612Z,8.28
2017-02-05T05:16:24.260Z,8.22
2017-02-05T05:17:04.687Z,8.2
2017-02-05T05:17:45.959Z,8.2
2017-02-05T05:18:26.423Z,8.19
2017-02-05T05:19:06.971Z,8.28
2017-02-05T05:19:47.433Z,8.28
2017-02-05T05:20:27.934Z,8.26
2017-02-05T05:21:08.457Z,8.25
2017-02-05T05:21:49.033Z,8.2
2017-02-05T05:22:29.557Z,8.28
2017-02-05T05:23:10.098Z,8.3
2017-02-05T05:23:50.567Z,8.41
2017-02-05T05:24:31.087Z,8.29
2017-02-05T05:25:11.695Z,8.29
2017-02-05T05:25:52.171Z,8.05
2017-02-05T05:26:32.710Z,8.02
2017-02-05T05:27:13.209Z,8.12
2017-02-05T05:27:53.688Z,8.11
2017-02-05T05:28:34.164Z,8.19
2017-02-05T05:29:14.593Z,8.25
2017-02-05T05:29:55.127Z,8.22
2017-02-05T05:30:35.588Z,8.25
2017-02-05T05:31:16.068Z,8.33
2017-02-05T05:31:56.607Z,8.28
2017-02-05T05:32:37.096Z,8.33
2017-02-05T05:33:17.585Z,8.22
2017-02-05T05:33:58.090Z,8.25
2017-02-05T05:34:38.573Z,8.18
2017-02-05T05:35:19.042Z,8.25
2017-02-05T05:35:59.544Z,8.28
2017-02-05T05:36:40.048Z,8.38
2017-02-05T05:37:20.506Z,8.29
2017-02-05T05:38:01.055Z,8.34
2017-02-05T05:38:41.567Z,8.34
2017-02-05T05:39:22.002Z,8.3
2017-02-05T05:40:02.529Z,8.38
2017-02-05T05:40:43.103Z,8.29
2017-02-05T05:41:23.606Z,8.36
2017-02-05T05:42:04.031Z,8.37
2017-02-05T05:42:44.559Z,8.26
2017-02-05T05:43:25.034Z,8.37
2017-02-05T05:44:05.550Z,8.4
2017-02-05T05:44:46.019Z,8.36
2017-02-05T05:45:26.463Z,8.33
2017-02-05T05:46:07.132Z,8.41
2017-02-05T05:46:47.532Z,8.38
2017-02-05T05:47:28.068Z,8.44
2017-02-05T05:48:08.544Z,8.43
2017-02-05T05:48:49.090Z,8.34
2017-02-05T05:49:29.612Z,8.33
2017-02-05T05:50:10.047Z,8.44
2017-02-05T05:50:50.562Z,8.38
2017-02-05T05:51:31.042Z,8.36
2017-02-05T05:52:11.592Z,8.4
2017-02-05T05:52:52.022Z,8.33
2017-02-05T05:53:32.543Z,8.36
2017-02-05T05:54:13.031Z,8.45
2017-02-05T05:54:53.551Z,8.44
2017-02-05T05:55:34.024Z,8.52
2017-02-05T05:56:14.526Z,8.41
2017-02-05T05:56:55.024Z,8.34
2017-02-05T05:57:35.482Z,8.34
2017-02-05T05:58:15.981Z,8.38
2017-02-05T05:58:56.472Z,8.37
2017-02-05T05:59:36.969Z,8.44
2017-02-05T06:00:17.487Z,8.44
2017-02-05T06:00:57.989Z,8.33
2017-02-05T06:01:38.550Z,8.45
2017-02-05T06:02:19.021Z,8.44
2017-02-05T06:02:59.439Z,8.45
2017-02-05T06:03:40.048Z,8.45
2017-02-05T06:04:20.589Z,8.43
2017-02-05T06:05:01.121Z,8.52
2017-02-05T06:05:41.658Z,8.5
2017-02-05T06:06:22.138Z,8.47
2017-02-05T06:07:02.627Z,8.56
2017-02-05T06:07:43.152Z,8.5
2017-02-05T06:08:23.707Z,8.59
2017-02-05T06:09:04.161Z,8.5
2017-02-05T06:09:44.678Z,8.47
2017-02-05T06:10:25.132Z,8.5
2017-02-05T06:11:05.622Z,8.45
2017-02-05T06:11:46.134Z,8.5
2017-02-05T06:12:26.707Z,8.59
2017-02-05T06:13:07.163Z,8.56
2017-02-05T06:13:47.677Z,8.37
2017-02-05T06:14:28.131Z,8.36
2017-02-05T06:15:08.617Z,8.36
2017-02-05T06:15:49.141Z,8.47
2017-02-05T06:16:29.573Z,8.5
2017-02-05T06:17:10.060Z,8.47
2017-02-05T06:17:50.582Z,8.45
2017-02-05T06:18:31.224Z,8.61
2017-02-05T06:19:11.800Z,8.61
2017-02-05T06:19:52.303Z,8.44
2017-02-05T06:20:32.758Z,8.5
2017-02-05T06:21:13.413Z,8.44
2017-02-05T06:21:53.927Z,8.65
2017-02-05T06:22:34.413Z,8.5
2017-02-05T06:23:14.955Z,8.65
2017-02-05T06:23:55.421Z,8.47
2017-02-05T06:24:35.861Z,8.65
2017-02-05T06:25:16.388Z,8.71
2017-02-05T06:25:56.857Z,8.73
2017-02-05T06:26:37.429Z,8.68
2017-02-05T06:27:17.899Z,8.59
2017-02-05T06:27:58.452Z,8.61
2017-02-05T06:28:38.886Z,8.56
2017-02-05T06:29:19.432Z,8.62
2017-02-05T06:29:59.901Z,8.65
2017-02-05T06:30:40.391Z,8.62
2017-02-05T06:31:20.920Z,8.62
2017-02-05T06:32:01.616Z,8.62
2017-02-05T06:32:42.178Z,8.61
2017-02-05T06:33:22.641Z,8.58
2017-02-05T06:34:03.101Z,8.62
2017-02-05T06:34:43.563Z,8.61
2017-02-05T06:35:24.115Z,8.53
2017-02-05T06:36:04.615Z,8.62
2017-02-05T06:36:45.151Z,8.59
2017-02-05T06:37:25.641Z,8.73
2017-02-05T06:38:06.265Z,8.56
2017-02-05T06:38:46.601Z,8.53
2017-02-05T06:39:27.064Z,8.56
2017-02-05T06:40:07.564Z,8.44
2017-02-05T06:40:48.105Z,8.53
2017-02-05T06:41:28.545Z,8.53
2017-02-05T06:42:09.510Z,8.37
2017-02-05T06:42:50.065Z,8.41
2017-02-05T06:43:30.648Z,8.37
2017-02-05T06:44:11.225Z,8.48
2017-02-05T06:44:51.599Z,8.43
2017-02-05T06:45:32.078Z,8.45
2017-02-05T06:46:12.583Z,8.25
2017-02-05T06:46:53.073Z,8.04
2017-02-05T06:47:33.593Z,8.1
2017-02-05T06:48:14.067Z,8.33
2017-02-05T06:48:54.623Z,8.18
2017-02-05T06:49:35.178Z,8.12
2017-02-05T06:50:15.743Z,8.28
2017-02-05T06:50:56.259Z,8.3
2017-02-05T06:51:36.802Z,8.25
2017-02-05T06:52:17.283Z,8.22
2017-02-05T06:52:57.733Z,8.23
2017-02-05T06:53:38.206Z,8.38
2017-02-05T06:54:18.820Z,8.41
2017-02-05T06:54:59.296Z,8.47
2017-02-05T06:55:39.846Z,8.44
2017-02-05T06:56:20.525Z,8.45
2017-02-05T06:57:00.915Z,8.36
2017-02-05T06:57:41.484Z,8.41
2017-02-05T06:58:22.023Z,8.41
2017-02-05T06:59:03.112Z,8.44
2017-02-05T06:59:43.111Z,8.41
2017-02-05T07:00:23.685Z,8.29
2017-02-05T07:01:04.170Z,8.44
2017-02-05T07:01:44.685Z,8.34
2017-02-05T07:02:25.338Z,8.4
2017-02-05T07:03:05.820Z,8.34
2017-02-05T07:03:46.331Z,8.25
2017-02-05T07:04:26.742Z,8.43
2017-02-05T07:05:07.249Z,8.4
2017-02-05T07:05:47.769Z,8.28
2017-02-05T07:06:28.246Z,8.37
2017-02-05T07:07:08.739Z,8.41
2017-02-05T07:07:49.213Z,8.37
2017-02-05T07:08:29.688Z,8.52
2017-02-05T07:09:10.279Z,8.48
2017-02-05T07:09:50.767Z,8.48
2017-02-05T07:10:31.210Z,8.48
2017-02-05T07:11:11.802Z,8.48
2017-02-05T07:11:52.209Z,8.44
2017-02-05T07:12:32.693Z,8.53
2017-02-05T07:13:13.163Z,8.58
2017-02-05T07:13:53.655Z,8.56
2017-02-05T07:14:34.239Z,8.58
2017-02-05T07:15:14.711Z,8.56
2017-02-05T07:15:55.193Z,8.56
2017-02-05T07:16:35.734Z,8.68
2017-02-05T07:17:16.248Z,8.65
2017-02-05T07:17:56.692Z,8.59
2017-02-05T07:18:37.191Z,8.58
2017-02-05T07:19:17.619Z,8.59
2017-02-05T07:19:58.182Z,8.58
2017-02-05T07:20:38.749Z,8.71
2017-02-05T07:21:19.363Z,8.65
2017-02-05T07:21:59.843Z,8.62
2017-02-05T07:22:40.317Z,8.68
2017-02-05T07:23:20.860Z,8.66
2017-02-05T07:24:01.366Z,8.61
2017-02-05T07:24:41.838Z,8.63
2017-02-05T07:25:22.306Z,8.66
2017-02-05T07:26:02.799Z,8.7
2017-02-05T07:26:43.366Z,8.63
2017-02-05T07:27:23.839Z,8.65
2017-02-05T07:28:04.300Z,8.65
2017-02-05T07:28:44.828Z,8.71
2017-02-05T07:29:25.410Z,8.77
2017-02-05T07:30:05.938Z,8.77
2017-02-05T07:30:46.616Z,8.68
2017-02-05T07:31:27.141Z,8.73
2017-02-05T07:32:07.685Z,8.76
2017-02-05T07:32:48.142Z,8.73
2017-02-05T07:33:28.716Z,8.73
2017-02-05T07:34:12.814Z,8.59
2017-02-05T07:34:55.471Z,8.76
2017-02-05T07:35:36.025Z,8.7
2017-02-05T07:36:16.579Z,8.44
2017-02-05T07:36:57.106Z,8.47
2017-02-05T07:37:37.581Z,8.61
2017-02-05T07:38:18.072Z,8.38
2017-02-05T07:38:58.622Z,8.33
2017-02-05T07:39:39.146Z,8.37
2017-02-05T07:40:19.700Z,8.53
2017-02-05T07:41:02.854Z,8.58
2017-02-05T07:41:42.980Z,8.59
2017-02-05T07:42:23.527Z,8.41
2017-02-05T07:43:03.965Z,8.4
2017-02-05T07:43:44.436Z,8.58
2017-02-05T07:44:24.975Z,8.71
2017-02-05T07:45:05.613Z,8.76
2017-02-05T07:45:46.060Z,8.74
2017-02-05T07:46:26.538Z,8.91
2017-02-05T07:47:07.094Z,8.83
2017-02-05T07:47:47.560Z,8.59
2017-02-05T07:48:28.155Z,8.8
2017-02-05T07:49:08.650Z,8.77
2017-02-05T07:49:49.170Z,8.86
2017-02-05T07:50:29.826Z,8.89
2017-02-05T07:51:10.350Z,8.83
2017-02-05T07:51:50.839Z,8.81
2017-02-05T07:52:31.310Z,8.92
2017-02-05T07:53:11.739Z,8.98
2017-02-05T07:53:52.308Z,8.92
2017-02-05T07:54:32.830Z,8.98
2017-02-05T07:55:13.313Z,8.99
2017-02-05T07:55:53.833Z,8.99
2017-02-05T07:56:34.357Z,8.96
2017-02-05T07:57:14.828Z,8.96
2017-02-05T07:57:55.318Z,8.81
2017-02-05T07:58:36.171Z,8.89
2017-02-05T07:59:16.583Z,8.81
2017-02-05T07:59:57.037Z,8.89
2017-02-05T08:00:37.567Z,8.95
2017-02-05T08:01:18.018Z,8.95
2017-02-05T08:01:58.681Z,8.83
2017-02-05T08:02:39.195Z,8.81
2017-02-05T08:03:19.740Z,8.91
2017-02-05T08:04:00.236Z,9.08
2017-02-05T08:04:40.759Z,8.84
2017-02-05T08:05:21.207Z,8.73
2017-02-05T08:06:01.737Z,8.63
2017-02-05T08:06:42.187Z,8.86
2017-02-05T08:07:22.712Z,8.87
2017-02-05T08:08:03.180Z,8.99
2017-02-05T08:08:43.751Z,9.04
2017-02-05T08:09:24.259Z,8.96
2017-02-05T08:10:04.752Z,9.02
2017-02-05T08:10:45.282Z,9.01
2017-02-05T08:11:25.781Z,8.86
2017-02-05T08:12:06.248Z,9.04
2017-02-05T08:12:47.769Z,8.98
2017-02-05T08:13:27.732Z,8.81
2017-02-05T08:14:08.777Z,8.92
2017-02-05T08:14:49.716Z,9.14
2017-02-05T08:15:30.260Z,9.11
2017-02-05T08:16:10.702Z,9.14
2017-02-05T08:16:51.180Z,9.13
2017-02-05T08:17:31.708Z,9.05
2017-02-05T08:18:14.135Z,9.32
2017-02-05T08:18:53.951Z,9.26
2017-02-05T08:19:34.442Z,9.29
2017-02-05T08:20:14.940Z,9.36
2017-02-05T08:20:55.512Z,9.24
2017-02-05T08:21:35.961Z,8.81
2017-02-05T08:22:16.480Z,9.14
2017-02-05T08:22:57.045Z,9.15
2017-02-05T08:23:37.504Z,9.23
2017-02-05T08:24:17.983Z,9.38
2017-02-05T08:24:58.504Z,9.43
2017-02-05T08:25:39.631Z,9.5
2017-02-05T08:26:22.918Z,9.42
2017-02-05T08:27:03.549Z,9.32
2017-02-05T08:27:44.006Z,9.39
2017-02-05T08:28:24.687Z,9.48
2017-02-05T08:29:07.955Z,9.21
2017-02-05T08:29:48.498Z,9.31
2017-02-05T08:30:30.267Z,9.36
2017-02-05T08:31:10.755Z,9.53
2017-02-05T08:31:51.336Z,9.51
2017-02-05T08:32:31.916Z,9.61
2017-02-05T08:33:12.385Z,9.65
2017-02-05T08:33:52.866Z,9.71
2017-02-05T08:34:33.381Z,9.76
2017-02-05T08:35:14.073Z,9.69
2017-02-05T08:35:54.555Z,9.72
2017-02-05T08:36:37.036Z,9.69
2017-02-05T08:37:16.589Z,9.74
2017-02-05T08:37:58.197Z,9.79
2017-02-05T08:38:39.220Z,9.71
2017-02-05T08:39:19.706Z,9.76
2017-02-05T08:40:01.029Z,9.78
2017-02-05T08:40:41.719Z,9.65
2017-02-05T08:41:22.371Z,9.68
2017-02-05T08:42:02.876Z,9.76
2017-02-05T08:42:43.384Z,9.71
2017-02-05T08:43:24.018Z,9.74
2017-02-05T08:44:04.591Z,9.72
2017-02-05T08:44:45.135Z,9.72
2017-02-05T08:45:25.686Z,9.68
2017-02-05T08:46:06.213Z,9.69
2017-02-05T08:46:46.719Z,9.81
2017-02-05T08:47:27.184Z,9.76
2017-02-05T08:48:07.865Z,9.84
2017-02-05T08:48:48.364Z,9.81
2017-02-05T08:49:28.816Z,9.81
2017-02-05T08:50:09.313Z,9.79
2017-02-05T08:50:49.984Z,9.68
2017-02-05T08:51:30.518Z,9.78
2017-02-05T08:52:10.973Z,9.87
2017-02-05T08:52:51.472Z,9.89
2017-02-05T08:53:32.079Z,9.93
2017-02-05T08:54:13.764Z,9.99
2017-02-05T08:54:54.113Z,10.04
2017-02-05T08:55:34.605Z,9.86
2017-02-05T08:56:15.040Z,9.84
2017-02-05T08:56:55.559Z,9.84
2017-02-05T08:57:36.175Z,9.89
2017-02-05T08:58:16.726Z,9.93
2017-02-05T08:58:57.241Z,9.93
2017-02-05T08:59:42.410Z,9.81
2017-02-05T09:00:22.897Z,9.72
2017-02-05T09:01:03.405Z,9.71
2017-02-05T09:01:44.638Z,9.79
2017-02-05T09:02:25.314Z,9.89
2017-02-05T09:03:05.771Z,9.84
2017-02-05T09:03:46.276Z,9.94
2017-02-05T09:04:26.764Z,9.97
2017-02-05T09:05:07.292Z,10.09
2017-02-05T09:05:47.818Z,10.02
2017-02-05T09:06:28.845Z,10.14